createdAt,value
2022-07-26T00:00:13.196Z,99.90
2022-07-26T00:02:48.167Z,99.90
2022-07-26T00:05:16.990Z,99.90
2022-07-26T00:07:44.795Z,99.90
2022-07-26T00:10:12.361Z,99.90
2022-07-26T00:12:39.432Z,99.90
2022-07-26T00:15:09.817Z,99.90
2022-07-26T00:17:36.821Z,99.90
2022-07-26T00:20:04.869Z,99.90
2022-07-26T00:22:34.704Z,99.90
2022-07-26T00:25:04.868Z,99.90
2022-07-26T00:34:54.945Z,99.90
2022-07-26T00:39:49.786Z,99.90
2022-07-26T00:42:16.978Z,99.90
2022-07-26T00:44:46.462Z,99.90
2022-07-26T00:47:14.026Z,99.90
2022-07-26T00:49:41.974Z,99.90
2022-07-26T00:52:10.326Z,99.90
2022-07-26T00:54:39.106Z,99.90
2022-07-26T00:57:06.557Z,99.90
2022-07-26T00:59:33.535Z,99.90
2022-07-26T01:02:01.137Z,99.90
2022-07-26T01:04:28.669Z,99.90
2022-07-26T01:06:55.994Z,99.90
2022-07-26T01:09:24.946Z,99.90
2022-07-26T01:11:51.948Z,99.90
2022-07-26T01:14:25.193Z,99.90
2022-07-26T01:16:52.702Z,99.90
2022-07-26T01:19:20.714Z,99.90
2022-07-26T01:21:47.797Z,99.90
2022-07-26T01:24:14.702Z,99.90
2022-07-26T01:26:41.868Z,99.90
2022-07-26T01:29:09.343Z,99.90
2022-07-26T01:31:36.521Z,99.90
2022-07-26T01:34:04.010Z,99.90
2022-07-26T01:36:30.912Z,99.90
2022-07-26T01:38:57.865Z,99.90
2022-07-26T01:41:37.448Z,99.90
2022-07-26T01:44:06.723Z,99.90
2022-07-26T01:46:34.821Z,99.90
2022-07-26T01:49:02.002Z,99.90
2022-07-26T01:51:29.361Z,99.90
2022-07-26T01:53:56.651Z,99.90
2022-07-26T01:56:23.633Z,99.90
2022-07-26T01:58:50.658Z,99.90
2022-07-26T02:01:38.845Z,99.90
2022-07-26T02:04:05.017Z,99.90
2022-07-26T02:06:32.202Z,99.90
2022-07-26T02:09:00.899Z,99.90
2022-07-26T02:11:29.025Z,99.90
2022-07-26T02:13:55.943Z,99.90
2022-07-26T02:16:23.024Z,99.90
2022-07-26T02:18:49.989Z,99.90
2022-07-26T02:21:17.047Z,99.90
2022-07-26T02:23:44.748Z,99.90
2022-07-26T02:26:11.802Z,99.90
2022-07-26T02:28:38.838Z,99.90
2022-07-26T02:31:05.819Z,99.90
2022-07-26T02:33:32.788Z,99.90
2022-07-26T02:35:59.664Z,99.90
2022-07-26T02:38:26.613Z,99.90
2022-07-26T02:40:53.550Z,99.90
2022-07-26T02:43:20.621Z,99.90
2022-07-26T02:46:00.972Z,99.90
2022-07-26T02:48:32.448Z,99.90
2022-07-26T02:50:59.831Z,99.90
2022-07-26T02:53:26.904Z,99.90
2022-07-26T02:55:53.769Z,99.90
2022-07-26T02:58:21.789Z,99.90
2022-07-26T03:00:49.007Z,99.90
2022-07-26T03:03:16.037Z,99.90
2022-07-26T03:05:43.222Z,99.90
2022-07-26T03:08:10.165Z,99.90
2022-07-26T03:10:37.086Z,99.90
2022-07-26T03:13:04.023Z,99.90
2022-07-26T03:15:31.038Z,99.90
2022-07-26T03:17:58.001Z,99.90
2022-07-26T03:20:25.234Z,99.90
2022-07-26T03:22:52.185Z,99.90
2022-07-26T03:25:19.088Z,99.90
2022-07-26T03:27:46.040Z,99.90
2022-07-26T03:30:13.842Z,99.90
2022-07-26T03:32:40.976Z,99.90
2022-07-26T03:35:08.919Z,99.90
2022-07-26T03:37:46.095Z,99.90
2022-07-26T03:40:16.299Z,99.90
2022-07-26T03:42:44.008Z,99.90
2022-07-26T03:45:11.389Z,99.90
2022-07-26T03:47:38.520Z,99.90
2022-07-26T03:50:07.509Z,99.90
2022-07-26T03:52:35.000Z,99.90
2022-07-26T03:55:21.944Z,99.90
2022-07-26T03:57:49.333Z,99.90
2022-07-26T04:00:16.298Z,99.90
2022-07-26T04:02:43.584Z,99.90
2022-07-26T04:05:11.417Z,99.90
2022-07-26T04:07:53.187Z,99.90
2022-07-26T04:10:21.078Z,99.90
2022-07-26T04:12:48.056Z,99.90
2022-07-26T04:15:17.127Z,99.90
2022-07-26T04:17:44.362Z,99.90
2022-07-26T04:20:12.665Z,99.90
2022-07-26T04:22:41.932Z,99.90
2022-07-26T04:25:10.151Z,99.90
2022-07-26T04:27:37.676Z,99.90
2022-07-26T04:30:12.370Z,99.90
2022-07-26T04:32:41.630Z,99.90
2022-07-26T04:35:09.036Z,99.90
2022-07-26T04:37:43.983Z,99.90
2022-07-26T04:40:13.003Z,99.90
2022-07-26T04:42:40.396Z,99.90
2022-07-26T04:45:08.702Z,99.90
2022-07-26T04:47:36.519Z,99.90
2022-07-26T04:50:04.440Z,99.90
2022-07-26T04:52:31.330Z,99.90
2022-07-26T04:54:59.544Z,99.90
2022-07-26T04:57:26.458Z,99.90
2022-07-26T05:00:10.095Z,99.90
2022-07-26T05:02:41.089Z,99.90
2022-07-26T05:05:08.832Z,99.90
2022-07-26T05:07:52.107Z,99.90
2022-07-26T05:10:20.136Z,99.90
2022-07-26T05:12:47.661Z,99.90
2022-07-26T05:15:15.709Z,99.90
2022-07-26T05:17:44.164Z,99.90
2022-07-26T05:20:16.415Z,99.90
2022-07-26T05:22:44.740Z,99.90
2022-07-26T05:25:11.707Z,99.90
2022-07-26T05:27:40.499Z,99.90
2022-07-26T05:30:08.574Z,99.90
2022-07-26T05:32:35.508Z,99.90
2022-07-26T05:35:02.411Z,99.90
2022-07-26T05:37:29.388Z,99.90
2022-07-26T05:39:56.329Z,99.90
2022-07-26T05:42:23.274Z,99.90
2022-07-26T05:44:50.181Z,99.90
2022-07-26T05:47:17.775Z,99.90
2022-07-26T05:49:44.929Z,99.90
2022-07-26T05:52:11.830Z,99.90
2022-07-26T05:54:38.837Z,99.90
2022-07-26T05:57:05.841Z,99.90
2022-07-26T05:59:32.841Z,99.90
2022-07-26T06:02:00.091Z,99.90
2022-07-26T06:04:28.222Z,99.90
2022-07-26T06:06:55.582Z,99.90
2022-07-26T06:09:24.879Z,99.90
2022-07-26T06:11:52.258Z,99.90
2022-07-26T06:14:20.299Z,99.90
2022-07-26T06:16:47.948Z,99.90
2022-07-26T06:19:15.025Z,99.90
2022-07-26T06:21:46.200Z,99.90
2022-07-26T06:24:13.679Z,99.90
2022-07-26T06:26:40.740Z,99.90
2022-07-26T06:29:07.746Z,99.90
2022-07-26T06:31:35.012Z,99.90
2022-07-26T06:34:02.167Z,99.90
2022-07-26T06:36:31.018Z,99.90
2022-07-26T06:38:58.568Z,99.90
2022-07-26T06:41:25.650Z,99.90
2022-07-26T06:43:52.820Z,99.90
2022-07-26T06:46:21.375Z,99.90
2022-07-26T06:48:52.660Z,99.90
2022-07-26T06:51:21.019Z,99.90
2022-07-26T06:53:48.238Z,99.90
2022-07-26T06:56:17.806Z,99.90
2022-07-26T06:58:44.785Z,99.90
2022-07-26T07:01:11.859Z,99.90
2022-07-26T07:03:39.071Z,99.90
2022-07-26T07:06:06.387Z,99.90
2022-07-26T07:08:33.349Z,99.90
2022-07-26T07:11:00.464Z,99.90
2022-07-26T07:13:28.869Z,99.90
2022-07-26T07:15:55.797Z,99.90
2022-07-26T07:18:22.744Z,99.90
2022-07-26T07:20:49.677Z,99.90
2022-07-26T07:23:16.630Z,99.90
2022-07-26T07:25:44.879Z,99.90
2022-07-26T07:28:12.088Z,99.90
2022-07-26T07:30:39.003Z,99.90
2022-07-26T07:33:09.479Z,99.90
2022-07-26T07:35:50.234Z,99.90
2022-07-26T07:38:17.277Z,99.90
2022-07-26T07:40:44.695Z,99.90
2022-07-26T07:43:11.612Z,99.90
2022-07-26T07:45:38.517Z,99.90
2022-07-26T07:48:05.876Z,99.90
2022-07-26T07:50:33.252Z,99.90
2022-07-26T07:53:02.190Z,99.90
2022-07-26T07:55:40.613Z,99.90
2022-07-26T07:58:08.641Z,99.90
2022-07-26T08:00:35.680Z,99.90
2022-07-26T08:03:04.293Z,99.90
2022-07-26T08:05:31.173Z,99.90
2022-07-26T08:07:58.180Z,99.90
2022-07-26T08:10:25.174Z,99.90
2022-07-26T08:12:52.154Z,99.90
2022-07-26T08:15:19.361Z,99.90
2022-07-26T08:17:51.095Z,99.90
2022-07-26T08:20:23.659Z,99.90
2022-07-26T08:22:52.288Z,99.90
2022-07-26T08:25:19.557Z,99.90
2022-07-26T08:28:00.462Z,99.90
2022-07-26T08:30:30.833Z,99.90
2022-07-26T08:32:57.848Z,99.90
2022-07-26T08:35:24.978Z,99.90
2022-07-26T08:37:52.021Z,99.90
2022-07-26T08:40:18.962Z,99.90
2022-07-26T08:42:53.374Z,99.90
2022-07-26T08:45:28.656Z,99.90
2022-07-26T08:48:16.751Z,99.90
2022-07-26T08:50:43.632Z,99.90
2022-07-26T08:53:13.134Z,99.90
2022-07-26T08:56:05.548Z,99.90
2022-07-26T08:58:27.825Z,99.90
2022-07-26T09:01:06.107Z,99.90
2022-07-26T09:03:33.296Z,99.90
2022-07-26T09:06:12.493Z,99.90
2022-07-26T09:08:39.556Z,99.90
2022-07-26T09:11:24.600Z,99.90
2022-07-26T09:13:56.848Z,99.90
2022-07-26T09:16:24.405Z,99.90
2022-07-26T09:18:51.548Z,99.90
2022-07-26T09:21:32.500Z,99.90
2022-07-26T09:24:00.507Z,99.90
2022-07-26T09:26:28.291Z,99.90
2022-07-26T09:29:03.412Z,99.90
2022-07-26T09:31:30.523Z,98.30
2022-07-26T09:33:59.046Z,96.80
2022-07-26T09:36:27.724Z,96.80
2022-07-26T09:39:04.132Z,97.10
2022-07-26T09:41:37.877Z,98.70
2022-07-26T09:44:20.084Z,98.50
2022-07-26T09:46:58.975Z,97.30
2022-07-26T09:49:30.941Z,94.60
2022-07-26T09:52:19.305Z,95.00
2022-07-26T09:54:49.353Z,94.80
2022-07-26T09:57:18.711Z,96.40
2022-07-26T09:59:46.559Z,95.50
2022-07-26T10:02:14.292Z,97.10
2022-07-26T10:04:42.886Z,95.90
2022-07-26T10:07:12.603Z,96.90
2022-07-26T10:10:03.238Z,98.00
2022-07-26T10:12:33.236Z,97.20
2022-07-26T10:15:00.362Z,96.60
2022-07-26T10:17:29.234Z,95.20
2022-07-26T10:20:01.951Z,94.70
2022-07-26T10:22:36.815Z,94.30
2022-07-26T10:25:23.904Z,94.80
2022-07-26T10:27:56.359Z,96.20
2022-07-26T10:30:28.833Z,97.50
2022-07-26T10:33:02.724Z,96.50
2022-07-26T10:35:36.571Z,95.30
2022-07-26T10:38:08.657Z,94.10
2022-07-26T10:40:37.424Z,94.00
2022-07-26T10:43:40.690Z,95.30
2022-07-26T10:46:18.051Z,95.70
2022-07-26T10:49:06.984Z,94.00
2022-07-26T10:51:41.096Z,93.80
2022-07-26T10:54:13.330Z,93.20
2022-07-26T10:56:41.035Z,93.00
2022-07-26T10:59:08.278Z,93.10
2022-07-26T11:01:37.081Z,93.40
2022-07-26T11:04:05.542Z,92.80
2022-07-26T11:06:32.923Z,93.30
2022-07-26T11:09:10.763Z,93.50
2022-07-26T11:11:37.741Z,91.30
2022-07-26T11:14:10.019Z,89.60
2022-07-26T11:16:41.597Z,84.70
2022-07-26T11:19:15.621Z,82.60
2022-07-26T11:21:43.902Z,81.00
2022-07-26T11:24:11.476Z,83.30
2022-07-26T11:26:43.438Z,81.10
2022-07-26T11:29:16.831Z,84.70
2022-07-26T11:31:51.965Z,86.00
2022-07-26T11:34:33.324Z,80.80
2022-07-26T11:37:02.973Z,82.90
2022-07-26T11:39:32.839Z,80.90
2022-07-26T11:42:04.291Z,83.50
2022-07-26T11:44:32.221Z,83.60
2022-07-26T11:47:00.160Z,87.60
2022-07-26T11:52:24.909Z,88.00
2022-07-26T11:54:53.247Z,89.50
2022-07-26T11:57:20.842Z,90.50
2022-07-26T11:59:48.873Z,90.20
2022-07-26T12:02:16.200Z,91.20
2022-07-26T12:04:44.176Z,90.50
2022-07-26T12:07:16.798Z,90.30
2022-07-26T12:09:51.632Z,86.70
2022-07-26T12:12:31.195Z,85.70
2022-07-26T12:15:05.008Z,83.00
2022-07-26T12:17:35.020Z,83.40
2022-07-26T12:20:31.580Z,83.50
2022-07-26T12:23:06.155Z,80.80
2022-07-26T12:25:33.737Z,73.90
2022-07-26T12:28:00.689Z,76.80
2022-07-26T12:30:30.819Z,78.80
2022-07-26T12:33:02.291Z,79.80
2022-07-26T12:35:33.655Z,83.50
2022-07-26T12:38:01.847Z,82.50
2022-07-26T12:40:40.815Z,84.50
2022-07-26T12:45:36.194Z,99.90
2022-07-26T12:48:07.505Z,80.70
2022-07-26T12:50:34.440Z,73.30
2022-07-26T12:53:06.562Z,76.30
2022-07-26T12:55:34.529Z,72.90
2022-07-26T12:58:01.672Z,72.00
2022-07-26T13:00:29.754Z,69.40
2022-07-26T13:02:57.541Z,67.60
2022-07-26T13:07:52.509Z,99.90
2022-07-26T13:10:33.189Z,71.70
2022-07-26T13:13:00.886Z,74.50
2022-07-26T13:18:07.309Z,77.80
2022-07-26T13:20:36.824Z,83.50
2022-07-26T13:23:04.007Z,87.70
2022-07-26T13:25:33.509Z,90.10
2022-07-26T13:28:05.932Z,91.80
2022-07-26T13:30:32.977Z,92.90
2022-07-26T13:33:00.053Z,93.00
2022-07-26T13:35:27.096Z,92.40
2022-07-26T13:37:54.129Z,92.80
2022-07-26T13:40:21.071Z,92.90
2022-07-26T13:42:50.174Z,92.70
2022-07-26T13:45:17.167Z,92.80
2022-07-26T13:47:44.106Z,91.40
2022-07-26T13:50:11.282Z,90.90
2022-07-26T13:52:38.461Z,90.10
2022-07-26T13:55:06.624Z,88.10
2022-07-26T13:57:47.274Z,90.30
2022-07-26T14:00:20.850Z,86.10
2022-07-26T14:02:48.138Z,86.50
2022-07-26T14:05:15.138Z,87.00
2022-07-26T14:07:42.727Z,86.20
2022-07-26T14:10:09.918Z,86.00
2022-07-26T14:12:38.277Z,83.50
2022-07-26T14:15:12.037Z,82.50
2022-07-26T14:17:41.122Z,81.90
2022-07-26T14:20:08.564Z,81.20
2022-07-26T14:22:35.575Z,80.20
2022-07-26T14:25:02.665Z,84.10
2022-07-26T14:27:29.649Z,83.70
2022-07-26T14:29:56.659Z,82.10
2022-07-26T14:32:23.634Z,77.70
2022-07-26T14:34:51.319Z,80.30
2022-07-26T14:37:44.157Z,78.80
2022-07-26T14:40:07.347Z,79.20
2022-07-26T14:42:34.495Z,78.00
2022-07-26T14:45:01.440Z,78.60
2022-07-26T14:47:28.409Z,76.90
2022-07-26T14:49:55.392Z,75.70
2022-07-26T14:52:22.538Z,77.40
2022-07-26T14:54:49.492Z,76.50
2022-07-26T14:57:16.450Z,75.70
2022-07-26T14:59:43.515Z,72.60
2022-07-26T15:02:12.121Z,74.40
2022-07-26T15:04:39.207Z,75.90
2022-07-26T15:07:06.193Z,75.90
2022-07-26T15:09:33.142Z,74.20
2022-07-26T15:12:00.556Z,74.10
2022-07-26T15:14:27.519Z,75.70
2022-07-26T15:16:54.514Z,73.30
2022-07-26T15:19:25.637Z,72.70
2022-07-26T15:21:55.086Z,74.80
2022-07-26T15:24:23.043Z,75.70
2022-07-26T15:26:50.727Z,76.10
2022-07-26T15:29:17.673Z,74.80
2022-07-26T15:31:44.901Z,77.20
2022-07-26T15:34:12.496Z,75.00
2022-07-26T15:36:39.620Z,78.50
2022-07-26T15:39:16.475Z,76.20
2022-07-26T15:41:44.894Z,77.20
2022-07-26T15:44:12.294Z,76.90
2022-07-26T15:46:39.913Z,78.60
2022-07-26T15:49:07.993Z,77.40
2022-07-26T15:51:35.082Z,73.90
2022-07-26T15:54:03.421Z,73.20
2022-07-26T15:56:30.485Z,76.10
2022-07-26T15:58:57.407Z,74.70
2022-07-26T16:01:24.593Z,75.20
2022-07-26T16:03:51.691Z,74.70
2022-07-26T16:06:18.626Z,75.70
2022-07-26T16:09:14.714Z,75.30
2022-07-26T16:11:32.601Z,74.70
2022-07-26T16:14:01.208Z,77.20
2022-07-26T16:16:30.254Z,76.00
2022-07-26T16:18:57.429Z,75.40
2022-07-26T16:21:24.862Z,77.10
2022-07-26T16:23:52.113Z,78.50
2022-07-26T16:26:19.325Z,79.30
2022-07-26T16:28:46.418Z,77.40
2022-07-26T16:31:13.539Z,77.10
2022-07-26T16:33:45.831Z,77.70
2022-07-26T16:36:14.407Z,77.60
2022-07-26T16:38:41.739Z,78.50
2022-07-26T16:41:08.795Z,79.10
2022-07-26T16:43:35.755Z,77.40
2022-07-26T16:46:02.770Z,76.60
2022-07-26T16:48:29.902Z,78.50
2022-07-26T16:50:56.950Z,79.20
2022-07-26T16:53:24.209Z,77.70
2022-07-26T16:55:52.071Z,77.90
2022-07-26T16:58:19.891Z,78.20
2022-07-26T17:00:47.303Z,78.30
2022-07-26T17:03:16.086Z,76.90
2022-07-26T17:05:44.617Z,78.20
2022-07-26T17:08:11.703Z,78.60
2022-07-26T17:10:39.033Z,78.80
2022-07-26T17:13:06.230Z,79.00
2022-07-26T17:15:33.614Z,80.10
2022-07-26T17:18:00.912Z,79.60
2022-07-26T17:20:28.467Z,79.30
2022-07-26T17:22:55.443Z,78.50
2022-07-26T17:25:22.379Z,78.00
2022-07-26T17:27:49.348Z,80.00
2022-07-26T17:30:17.054Z,76.40
2022-07-26T17:32:43.973Z,94.70
2022-07-26T17:35:11.050Z,97.20
2022-07-26T17:37:37.975Z,99.50
2022-07-26T17:40:08.391Z,99.60
2022-07-26T17:42:36.415Z,99.90
2022-07-26T17:45:04.620Z,99.90
2022-07-26T17:47:32.392Z,99.90
2022-07-26T17:52:52.253Z,99.90
2022-07-26T17:55:20.043Z,99.90
2022-07-26T17:57:49.762Z,79.80
2022-07-26T18:00:21.312Z,79.80
2022-07-26T18:02:48.598Z,80.70
2022-07-26T18:05:16.007Z,79.10
2022-07-26T18:07:43.097Z,79.10
2022-07-26T18:10:11.294Z,80.80
2022-07-26T18:12:38.395Z,78.80
2022-07-26T18:15:07.154Z,79.50
2022-07-26T18:17:34.191Z,80.10
2022-07-26T18:20:01.086Z,79.60
2022-07-26T18:22:28.004Z,77.00
2022-07-26T18:24:55.000Z,78.00
2022-07-26T18:27:22.437Z,78.30
2022-07-26T18:29:49.862Z,78.60
2022-07-26T18:32:16.977Z,79.60
2022-07-26T18:34:51.810Z,80.50
2022-07-26T18:37:20.851Z,81.10
2022-07-26T18:39:51.570Z,80.40
2022-07-26T18:42:21.131Z,81.00
2022-07-26T18:44:48.071Z,81.30
2022-07-26T18:47:15.221Z,80.90
2022-07-26T18:49:42.378Z,82.20
2022-07-26T18:52:09.936Z,81.40
2022-07-26T18:54:37.368Z,80.90
2022-07-26T18:59:32.214Z,79.60
2022-07-26T19:02:00.217Z,82.30
2022-07-26T19:04:28.375Z,81.90
2022-07-26T19:06:55.842Z,82.20
2022-07-26T19:09:22.871Z,84.20
2022-07-26T19:11:49.837Z,83.10
2022-07-26T19:14:16.855Z,86.70
2022-07-26T19:16:43.877Z,90.40
2022-07-26T19:19:11.145Z,90.20
2022-07-26T19:21:40.253Z,91.40
2022-07-26T19:24:07.462Z,94.20
2022-07-26T19:26:35.853Z,94.70
2022-07-26T19:29:02.873Z,95.20
2022-07-26T19:31:30.277Z,97.60
2022-07-26T19:33:57.459Z,97.10
2022-07-26T19:36:25.777Z,97.00
2022-07-26T19:38:54.078Z,96.90
2022-07-26T19:41:21.152Z,97.00
2022-07-26T19:43:48.135Z,97.20
2022-07-26T19:46:15.445Z,97.40
2022-07-26T19:48:42.578Z,97.20
2022-07-26T19:51:09.741Z,96.90
2022-07-26T19:53:36.749Z,96.90
2022-07-26T19:56:04.231Z,96.70
2022-07-26T19:58:31.316Z,96.60
2022-07-26T20:00:58.541Z,96.70
2022-07-26T20:03:25.483Z,96.50
2022-07-26T20:05:53.723Z,96.60
2022-07-26T20:08:20.991Z,96.60
2022-07-26T20:10:48.153Z,96.80
2022-07-26T20:13:15.248Z,98.10
2022-07-26T20:15:42.718Z,98.10
2022-07-26T20:18:10.664Z,98.90
2022-07-26T20:20:37.661Z,99.60
2022-07-26T20:23:06.216Z,99.90
2022-07-26T20:25:33.989Z,99.90
2022-07-26T20:28:00.945Z,99.90
2022-07-26T20:30:28.161Z,99.90
2022-07-26T20:32:55.484Z,99.90
2022-07-26T20:35:22.491Z,99.90
2022-07-26T20:37:49.398Z,99.90
2022-07-26T20:40:17.937Z,99.90
2022-07-26T20:42:45.572Z,99.90
2022-07-26T20:45:14.950Z,99.90
2022-07-26T20:47:43.105Z,99.90
2022-07-26T20:50:13.103Z,99.90
2022-07-26T20:52:40.498Z,99.90
2022-07-26T20:55:08.517Z,99.90
2022-07-26T20:57:35.925Z,99.90
2022-07-26T21:00:06.001Z,99.90
2022-07-26T21:02:32.968Z,99.90
2022-07-26T21:04:59.985Z,99.90
2022-07-26T21:07:58.797Z,99.90
2022-07-26T21:10:13.967Z,99.90
2022-07-26T21:12:40.955Z,99.90
2022-07-26T21:15:08.210Z,99.90
2022-07-26T21:17:35.118Z,99.90
2022-07-26T21:20:03.090Z,99.90
2022-07-26T21:22:30.136Z,99.90
2022-07-26T21:24:57.238Z,99.90
2022-07-26T21:27:24.488Z,99.90
2022-07-26T21:29:51.736Z,99.90
2022-07-26T21:32:18.884Z,99.90
2022-07-26T21:34:45.941Z,99.90
2022-07-26T21:37:13.720Z,99.90
2022-07-26T21:39:40.701Z,99.90
2022-07-26T21:42:09.357Z,99.90
2022-07-26T21:44:36.381Z,99.90
2022-07-26T21:47:06.025Z,99.90
2022-07-26T21:49:33.696Z,99.90
2022-07-26T21:52:00.761Z,99.90
2022-07-26T21:54:27.935Z,99.90
2022-07-26T21:56:54.917Z,99.90
2022-07-26T21:59:24.263Z,99.90
2022-07-26T22:01:51.298Z,99.90
2022-07-26T22:04:20.966Z,99.90
2022-07-26T22:06:47.946Z,99.90
2022-07-26T22:09:15.188Z,99.90
2022-07-26T22:11:42.355Z,99.90
2022-07-26T22:14:09.444Z,99.90
2022-07-26T22:16:36.513Z,99.90
2022-07-26T22:19:04.477Z,99.90
2022-07-26T22:21:31.398Z,99.90
2022-07-26T22:23:58.398Z,99.90
2022-07-26T22:26:31.067Z,99.90
2022-07-26T22:28:59.276Z,99.90
2022-07-26T22:31:26.445Z,99.90
2022-07-26T22:33:53.545Z,99.90
2022-07-26T22:36:20.619Z,99.90
2022-07-26T22:38:47.746Z,99.90
2022-07-26T22:41:14.867Z,99.90
2022-07-26T22:43:42.069Z,99.90
2022-07-26T22:46:09.251Z,99.90
2022-07-26T22:48:38.673Z,99.90
2022-07-26T22:51:06.392Z,99.90
2022-07-26T22:53:33.410Z,99.90
2022-07-26T22:56:00.433Z,99.90
2022-07-26T22:58:27.414Z,99.90
2022-07-26T23:00:54.607Z,99.90
2022-07-26T23:03:22.061Z,99.90
2022-07-26T23:05:50.368Z,99.90
2022-07-26T23:08:45.217Z,99.90
2022-07-26T23:13:32.684Z,99.90
2022-07-26T23:16:01.233Z,99.90
2022-07-26T23:18:30.098Z,99.90
2022-07-26T23:20:57.205Z,99.90
2022-07-26T23:23:29.098Z,99.90
2022-07-26T23:25:58.083Z,99.90
2022-07-26T23:28:36.944Z,99.90
2022-07-26T23:31:12.087Z,99.90
2022-07-26T23:33:52.932Z,99.90
2022-07-26T23:36:23.390Z,99.90
2022-07-26T23:38:50.674Z,99.90
2022-07-26T23:41:19.059Z,99.90
2022-07-26T23:43:46.066Z,99.90
2022-07-26T23:46:13.377Z,99.90
2022-07-26T23:48:40.560Z,99.90
2022-07-26T23:51:08.242Z,99.90
2022-07-26T23:53:35.327Z,99.90
2022-07-26T23:58:30.225Z,99.90
